Time;durP1;ratioP1;P1;durP2;ratioP2;P2;SDS_P1;SDS_P2;PMS_P1;PMS_P2;Temp;Humidity;BMP_temperature;BMP_pressure;BME280_temperature;BME280_humidity;BME280_pressure;Samples;Min_cycle;Max_cycle;Signal;HPM_P1;HPM_P2
2022/06/20 00:00:11;;;;;;;;;;;;;;;;;;1031964;28;3843;-50
2022/06/20 00:01:01;;;;;;;;;;;;;;;;;;1032578;28;3888;-54
2022/06/20 00:01:31;;;;;;;;;;;;;;;;;;1033039;28;2725;-54
2022/06/20 00:02:01;;;;;;;;;;;;;;;;;;1031737;28;4126;-54
2022/06/20 00:02:32;;;;;;;;;;;;;;;;;;1032055;28;3103;-53
2022/06/20 00:03:03;;;;;;;;;;;;;;;;;;1033385;28;3819;-53
2022/06/20 00:03:38;;;;;;;;;;;;;;;;;;1032310;28;3016;-51
2022/06/20 00:04:17;;;;;;;;;;;;;;;;;;1033418;28;4275;-52
2022/06/20 00:04:48;;;;;;;;;;;;;;;;;;1032372;28;3034;-54
2022/06/20 00:05:20;;;;;;;;;;;;;;;;;;1033016;28;3876;-54
2022/06/20 00:05:51;;;;;;;;;;;;;;;;;;1032076;28;2736;-53
2022/06/20 00:06:22;;;;;;;;;;;;;;;;;;1032385;28;4114;-54
2022/06/20 00:06:53;;;;;;;;;;;;;;;;;;1033089;28;4451;-52
2022/06/20 00:07:23;;;;;;;;;;;;;;;;;;1033277;28;1746;-53
2022/06/20 00:07:54;;;;;;;;;;;;;;;;;;1032079;28;4048;-53
2022/06/20 00:08:24;;;;;;;;;;;;;;;;;;1032112;28;2714;-52
2022/06/20 00:08:55;;;;;;;;;;;;;;;;;;1031536;28;3829;-52
2022/06/20 00:09:25;;;;;;;;;;;;;;;;;;1034072;28;1771;-52
2022/06/20 00:09:55;;;;;;;;;;;;;;;;;;1031278;28;3900;-52
2022/06/20 00:10:28;;;;;;;;;;;;;;;;;;1033487;28;2789;-51
2022/06/20 00:10:58;;;;;;;;;;;;;;;;;;1031494;28;4234;-56
2022/06/20 00:11:35;;;;;;;;;;;;;;;;;;1033924;28;1677;-51
2022/06/20 00:12:06;;;;;;;;;;;;;;;;;;1032499;28;3836;-56
2022/06/20 00:12:36;;;;;;;;;;;;;;;;;;1032331;28;2956;-53
2022/06/20 00:13:09;;;;;;;;;;;;;;;;;;1033009;28;3959;-55
2022/06/20 00:13:40;;;;;;;;;;;;;;;;;;1032047;28;3493;-55
2022/06/20 00:14:12;;;;;;;;;;;;;;;;;;1031829;28;3866;-53
2022/06/20 00:14:43;;;;;;;;;;;;;;;;;;1033268;28;3276;-54
2022/06/20 00:15:22;;;;;;;;;;;;;;;;;;1033031;28;3804;-53
2022/06/20 00:15:53;;;;;;;;;;;;;;;;;;1031402;28;3841;-54
2022/06/20 00:16:24;;;;;;;;;;;;;;;;;;1031896;28;3123;-50
2022/06/20 00:16:54;;;;;;;;;;;;;;;;;;1033441;28;3894;-53
2022/06/20 00:17:25;;;;;;;;;;;;;;;;;;1033520;28;3633;-52
2022/06/20 00:17:56;;;;;;;;;;;;;;;;;;1032346;28;3972;-53
2022/06/20 00:18:27;;;;;;;;;;;;;;;;;;1033384;28;1833;-50
2022/06/20 00:18:57;;;;;;;;;;;;;;;;;;1032482;28;3987;-54
2022/06/20 00:19:28;;;;;;;;;;;;;;;;;;1032216;28;3715;-54
2022/06/20 00:19:59;;;;;;;;;;;;;;;;;;1032517;28;3942;-53
2022/06/20 00:20:30;;;;;;;;;;;;;;;;;;1032399;28;2365;-55
2022/06/20 00:21:00;;;;;;;;;;;;;;;;;;1031869;28;4040;-54
2022/06/20 00:21:30;;;;;;;;;;;;;;;;;;1033006;28;1742;-55
2022/06/20 00:22:00;;;;;;;;;;;;;;;;;;1032090;28;3869;-53
2022/06/20 00:22:31;;;;;;;;;;;;;;;;;;1032959;28;1738;-53
2022/06/20 00:23:01;;;;;;;;;;;;;;;;;;1032169;28;3813;-53
2022/06/20 00:23:31;;;;;;;;;;;;;;;;;;1033171;28;2253;-51
2022/06/20 00:24:02;;;;;;;;;;;;;;;;;;1032650;28;3817;-54
2022/06/20 00:24:32;;;;;;;;;;;;;;;;;;1031793;28;3926;-49
2022/06/20 00:25:03;;;;;;;;;;;;;;;;;;1031116;28;3892;-49
2022/06/20 00:25:34;;;;;;;;;;;;;;;;;;1032335;28;2591;-53
2022/06/20 00:26:04;;;;;;;;;;;;;;;;;;1031149;28;3958;-53
2022/06/20 00:26:35;;;;;;;;;;;;;;;;;;1032139;28;3788;-54
2022/06/20 00:27:10;;;;;;;;;;;;;;;;;;1031675;28;3886;-49
2022/06/20 00:27:40;;;;;;;;;;;;;;;;;;1033845;28;1952;-53
2022/06/20 00:28:11;;;;;;;;;;;;;;;;;;1032381;28;4243;-53
2022/06/20 00:28:41;;;;;;;;;;;;;;;;;;1031571;28;7055;-50
2022/06/20 00:29:12;;;;;;;;;;;;;;;;;;1031363;28;3797;-52
2022/06/20 00:29:43;;;;;;;;;;;;;;;;;;1032426;28;2688;-53
2022/06/20 00:30:14;;;;;;;;;;;;;;;;;;1033866;28;4382;-54
2022/06/20 00:30:45;;;;;;;;;;;;;;;;;;1033650;28;1890;-54
2022/06/20 00:31:15;;;;;;;;;;;;;;;;;;1033515;28;4281;-53
2022/06/20 00:31:45;;;;;;;;;;;;;;;;;;1033832;28;2746;-54
2022/06/20 00:32:16;;;;;;;;;;;;;;;;;;1033774;28;3840;-53
2022/06/20 00:32:46;;;;;;;;;;;;;;;;;;1033845;28;2482;-54
2022/06/20 00:33:16;;;;;;;;;;;;;;;;;;1034480;28;4179;-54
2022/06/20 00:33:46;;;;;;;;;;;;;;;;;;1033679;28;3259;-51
2022/06/20 00:34:17;;;;;;;;;;;;;;;;;;1033741;28;3934;-52
2022/06/20 00:34:47;;;;;;;;;;;;;;;;;;1033823;28;2788;-54
2022/06/20 00:35:17;;;;;;;;;;;;;;;;;;1033294;28;3858;-54
2022/06/20 00:35:48;;;;;;;;;;;;;;;;;;1033724;28;2793;-52
2022/06/20 00:36:18;;;;;;;;;;;;;;;;;;1034007;28;3819;-54
2022/06/20 00:36:48;;;;;;;;;;;;;;;;;;1033203;28;2630;-53
2022/06/20 00:37:19;;;;;;;;;;;;;;;;;;1033162;28;3871;-53
2022/06/20 00:37:51;;;;;;;;;;;;;;;;;;1034829;28;1724;-52
2022/06/20 00:38:22;;;;;;;;;;;;;;;;;;1034066;28;3727;-53
2022/06/20 00:38:54;;;;;;;;;;;;;;;;;;1027951;28;3797;-50
2022/06/20 00:39:24;;;;;;;;;;;;;;;;;;1034480;28;3209;-54
2022/06/20 00:39:54;;;;;;;;;;;;;;;;;;1031811;28;3917;-51
2022/06/20 00:40:27;;;;;;;;;;;;;;;;;;1034412;28;1611;-53
2022/06/20 00:40:59;;;;;;;;;;;;;;;;;;1032138;28;3864;-53
2022/06/20 00:41:31;;;;;;;;;;;;;;;;;;1033595;28;2379;-52
2022/06/20 00:42:01;;;;;;;;;;;;;;;;;;1033256;28;3901;-53
2022/06/20 00:42:32;;;;;;;;;;;;;;;;;;1033576;28;2953;-52
2022/06/20 00:43:03;;;;;;;;;;;;;;;;;;1034121;28;4295;-52
2022/06/20 00:43:37;;;;;;;;;;;;;;;;;;1033509;28;3191;-51
2022/06/20 00:44:11;;;;;;;;;;;;;;;;;;1032717;28;4064;-53
2022/06/20 00:44:43;;;;;;;;;;;;;;;;;;1034068;28;2033;-54
2022/06/20 00:45:13;;;;;;;;;;;;;;;;;;1032699;28;3790;-54
2022/06/20 00:45:45;;;;;;;;;;;;;;;;;;1033850;28;2727;-51
2022/06/20 00:46:21;;;;;;;;;;;;;;;;;;1033010;28;3858;-52
2022/06/20 00:46:53;;;;;;;;;;;;;;;;;;1034710;28;2556;-52
2022/06/20 00:47:25;;;;;;;;;;;;;;;;;;1036697;28;3777;-53
2022/06/20 00:48:01;;;;;;;;;;;;;;;;;;1034180;28;4307;-53
2022/06/20 00:48:35;;;;;;;;;;;;;;;;;;1033818;28;2889;-52
2022/06/20 00:49:05;;;;;;;;;;;;;;;;;;1033726;28;3898;-51
2022/06/20 00:49:44;;;;;;;;;;;;;;;;;;1032623;28;2619;-50
2022/06/20 00:50:18;;;;;;;;;;;;;;;;;;1035437;28;3830;-53
2022/06/20 00:50:51;;;;;;;;;;;;;;;;;;1038089;28;1835;-52
2022/06/20 00:51:25;;;;;;;;;;;;;;;;;;1038230;28;4050;-53
2022/06/20 00:52:08;;;;;;;;;;;;;;;;;;1035798;28;3818;-50
2022/06/20 00:52:40;;;;;;;;;;;;;;;;;;1036719;28;2906;-55
2022/06/20 00:53:22;;;;;;;;;;;;;;;;;;1037408;28;4249;-53
2022/06/20 00:54:11;;;;;;;;;;;;;;;;;;1037893;28;3867;-54
2022/06/20 00:54:48;;;;;;;;;;;;;;;;;;1036214;28;3343;-53
2022/06/20 00:55:21;;;;;;;;;;;;;;;;;;1038134;28;4414;-53
2022/06/20 00:55:54;;;;;;;;;;;;;;;;;;1032969;28;3205;-56
2022/06/20 00:56:29;;;;;;;;;;;;;;;;;;1033940;28;4043;-53
2022/06/20 00:57:04;;;;;;;;;;;;;;;;;;1033215;28;3899;-53
2022/06/20 00:57:37;;;;;;;;;;;;;;;;;;1034435;28;1947;-55
2022/06/20 00:58:49;;;;;;;;;;;;;;;;;;1032653;28;4279;-55
2022/06/20 00:59:26;;;;;;;;;;;;;;;;;;1021577;28;3826;-51
2022/06/20 01:00:00;;;;;;;;;;;;;;;;;;1024908;28;4353;-51
2022/06/20 01:00:32;;;;;;;;;;;;;;;;;;1025840;28;2897;-52
2022/06/20 01:01:03;;;;;;;;;;;;;;;;;;1024966;28;3836;-51
2022/06/20 01:01:37;;;;;;;;;;;;;;;;;;1025361;28;4133;-49
2022/06/20 01:02:07;;;;;;;;;;;;;;;;;;1030234;28;3843;-52
2022/06/20 01:02:58;;;;;;;;;;;;;;;;;;1034236;28;3765;-52
2022/06/20 01:03:33;;;;;;;;;;;;;;;;;;1033188;28;3798;-54
2022/06/20 01:04:07;;;;;;;;;;;;;;;;;;1033270;28;3804;-53
2022/06/20 01:04:40;;;;;;;;;;;;;;;;;;1032286;28;2995;-50
2022/06/20 01:05:16;;;;;;;;;;;;;;;;;;1031014;28;4228;-51
2022/06/20 01:05:51;;;;;;;;;;;;;;;;;;1031324;28;2987;-51
2022/06/20 01:06:24;;;;;;;;;;;;;;;;;;1032874;28;3711;-50
2022/06/20 01:06:55;;;;;;;;;;;;;;;;;;1034198;28;3798;-53
2022/06/20 01:07:32;;;;;;;;;;;;;;;;;;1034475;28;2122;-49
2022/06/20 01:08:31;;;;;;;;;;;;;;;;;;1029277;28;3910;-54
2022/06/20 01:09:06;;;;;;;;;;;;;;;;;;1020439;28;3913;-54
2022/06/20 01:09:39;;;;;;;;;;;;;;;;;;1033565;28;2757;-53
2022/06/20 01:10:11;;;;;;;;;;;;;;;;;;1033339;28;3916;-51
2022/06/20 01:10:47;;;;;;;;;;;;;;;;;;1031900;28;3675;-51
2022/06/20 01:11:26;;;;;;;;;;;;;;;;;;1033311;28;3583;-53
2022/06/20 01:11:57;;;;;;;;;;;;;;;;;;1033243;28;4236;-52
2022/06/20 01:12:29;;;;;;;;;;;;;;;;;;1033483;28;2945;-54
2022/06/20 01:13:05;;;;;;;;;;;;;;;;;;1033067;28;3888;-52
2022/06/20 01:13:36;;;;;;;;;;;;;;;;;;1033068;28;2838;-53
2022/06/20 01:14:27;;;;;;;;;;;;;;;;;;1033791;28;4273;-52
2022/06/20 01:14:57;;;;;;;;;;;;;;;;;;1034021;28;4050;-51
2022/06/20 01:15:34;;;;;;;;;;;;;;;;;;1033788;28;2032;-51
2022/06/20 01:16:07;;;;;;;;;;;;;;;;;;1034276;28;3876;-53
2022/06/20 01:16:38;;;;;;;;;;;;;;;;;;1032898;28;2944;-51
2022/06/20 01:17:15;;;;;;;;;;;;;;;;;;1037617;28;3940;-52
2022/06/20 01:17:47;;;;;;;;;;;;;;;;;;1033298;28;2146;-52
2022/06/20 01:18:22;;;;;;;;;;;;;;;;;;1032444;28;3889;-53
2022/06/20 01:18:53;;;;;;;;;;;;;;;;;;1031098;28;2637;-54
2022/06/20 01:19:42;;;;;;;;;;;;;;;;;;1030887;28;3816;-52
2022/06/20 01:20:18;;;;;;;;;;;;;;;;;;1033043;28;4239;-53
2022/06/20 01:20:50;;;;;;;;;;;;;;;;;;1033361;28;2875;-54
2022/06/20 01:21:24;;;;;;;;;;;;;;;;;;1032934;28;4218;-52
2022/06/20 01:21:54;;;;;;;;;;;;;;;;;;1033660;28;4111;-49
2022/06/20 01:22:36;;;;;;;;;;;;;;;;;;1034366;28;2663;-53
2022/06/20 01:23:25;;;;;;;;;;;;;;;;;;1030899;28;3895;-51
2022/06/20 01:24:20;;;;;;;;;;;;;;;;;;1033878;28;3919;-49
2022/06/20 01:25:01;;;;;;;;;;;;;;;;;;1034710;28;2442;-54
2022/06/20 01:25:50;;;;;;;;;;;;;;;;;;1034318;28;3729;-51
2022/06/20 01:26:27;;;;;;;;;;;;;;;;;;1030575;28;3825;-53
2022/06/20 01:27:18;;;;;;;;;;;;;;;;;;1040163;28;3836;-53
2022/06/20 01:27:50;;;;;;;;;;;;;;;;;;1041935;28;2969;-55
2022/06/20 01:28:22;;;;;;;;;;;;;;;;;;1036083;28;3946;-55
2022/06/20 01:28:54;;;;;;;;;;;;;;;;;;1034236;28;3806;-54
2022/06/20 01:29:25;;;;;;;;;;;;;;;;;;1031373;28;3654;-54
2022/06/20 01:29:55;;;;;;;;;;;;;;;;;;1034462;28;3841;-52
2022/06/20 01:30:27;;;;;;;;;;;;;;;;;;1032882;28;3024;-52
2022/06/20 01:30:59;;;;;;;;;;;;;;;;;;1033742;28;3897;-55
2022/06/20 01:31:30;;;;;;;;;;;;;;;;;;1040743;28;3041;-55
2022/06/20 01:32:01;;;;;;;;;;;;;;;;;;1040580;28;3885;-53
2022/06/20 01:32:32;;;;;;;;;;;;;;;;;;1041274;28;2993;-53
2022/06/20 01:33:02;;;;;;;;;;;;;;;;;;1041066;28;4241;-54
2022/06/20 01:33:32;;;;;;;;;;;;;;;;;;1034427;28;1934;-54
2022/06/20 01:34:03;;;;;;;;;;;;;;;;;;1034317;28;4014;-56
2022/06/20 01:34:33;;;;;;;;;;;;;;;;;;1034463;28;2185;-52
2022/06/20 01:35:05;;;;;;;;;;;;;;;;;;1033386;28;4252;-50
2022/06/20 01:37:28;;;;;;;;;;;;;;;;;;1032735;28;4219;-51
2022/06/20 01:37:59;;;;;;;;;;;;;;;;;;1033009;28;3956;-52
2022/06/20 01:38:30;;;;;;;;;;;;;;;;;;1034648;28;2819;-51
2022/06/20 01:39:00;;;;;;;;;;;;;;;;;;1036495;28;3929;-55
2022/06/20 01:39:33;;;;;;;;;;;;;;;;;;1033321;28;2665;-55
2022/06/20 01:40:11;;;;;;;;;;;;;;;;;;1033271;28;3825;-54
2022/06/20 01:42:18;;;;;;;;;;;;;;;;;;1034840;28;2009;-53
2022/06/20 01:42:23;;;;;;;;;;;;;;;;;;1032732;28;3944;-53
2022/06/20 01:42:53;;;;;;;;;;;;;;;;;;1032117;28;3809;-52
2022/06/20 01:43:23;;;;;;;;;;;;;;;;;;1032264;28;3737;-51
2022/06/20 01:43:55;;;;;;;;;;;;;;;;;;1033008;28;4483;-55
2022/06/20 01:44:25;;;;;;;;;;;;;;;;;;1031638;28;3064;-54
2022/06/20 01:45:00;;;;;;;;;;;;;;;;;;1033618;28;3825;-52
2022/06/20 01:46:21;;;;;;;;;;;;;;;;;;1032863;28;4207;-53
2022/06/20 01:46:51;;;;;;;;;;;;;;;;;;1033832;28;2851;-52
2022/06/20 01:47:22;;;;;;;;;;;;;;;;;;1033029;28;4091;-54
2022/06/20 01:47:52;;;;;;;;;;;;;;;;;;1033157;28;3965;-52
2022/06/20 01:48:23;;;;;;;;;;;;;;;;;;1033130;28;1817;-53
2022/06/20 01:48:55;;;;;;;;;;;;;;;;;;1033244;28;3888;-53
2022/06/20 01:49:25;;;;;;;;;;;;;;;;;;1031434;28;3712;-56
2022/06/20 01:50:00;;;;;;;;;;;;;;;;;;1032011;28;3942;-52
2022/06/20 01:50:31;;;;;;;;;;;;;;;;;;1033351;28;1685;-52
2022/06/20 01:51:02;;;;;;;;;;;;;;;;;;1033740;28;3803;-55
2022/06/20 01:51:43;;;;;;;;;;;;;;;;;;1032348;28;2690;-51
2022/06/20 01:52:32;;;;;;;;;;;;;;;;;;1036136;28;3832;-53
2022/06/20 01:53:11;;;;;;;;;;;;;;;;;;1035499;28;3950;-50
2022/06/20 01:53:41;;;;;;;;;;;;;;;;;;1038084;28;1701;-55
2022/06/20 01:54:12;;;;;;;;;;;;;;;;;;1036193;28;3973;-52
2022/06/20 01:54:45;;;;;;;;;;;;;;;;;;1036553;28;2293;-54
2022/06/20 01:55:18;;;;;;;;;;;;;;;;;;1037384;28;4232;-54
2022/06/20 01:55:50;;;;;;;;;;;;;;;;;;1037424;28;1678;-53
2022/06/20 01:56:21;;;;;;;;;;;;;;;;;;1037126;28;3820;-53
2022/06/20 01:56:52;;;;;;;;;;;;;;;;;;1035666;28;3776;-51
2022/06/20 01:57:23;;;;;;;;;;;;;;;;;;1037787;28;3665;-53
2022/06/20 01:57:55;;;;;;;;;;;;;;;;;;1035715;28;4279;-52
2022/06/20 01:58:30;;;;;;;;;;;;;;;;;;1036891;28;2089;-52
2022/06/20 01:59:12;;;;;;;;;;;;;;;;;;1037664;28;3879;-52
2022/06/20 01:59:45;;;;;;;;;;;;;;;;;;1034666;28;3640;-55
2022/06/20 02:00:17;;;;;;;;;;;;;;;;;;1033707;28;4252;-55
2022/06/20 02:00:47;;;;;;;;;;;;;;;;;;1033502;28;2459;-51
2022/06/20 02:01:18;;;;;;;;;;;;;;;;;;1033548;28;3883;-52
2022/06/20 02:01:50;;;;;;;;;;;;;;;;;;1033689;28;1668;-52
2022/06/20 02:02:20;;;;;;;;;;;;;;;;;;1032208;28;4191;-51
2022/06/20 02:02:53;;;;;;;;;;;;;;;;;;1035662;28;3363;-53
2022/06/20 02:03:23;;;;;;;;;;;;;;;;;;1035228;28;3710;-52
2022/06/20 02:03:54;;;;;;;;;;;;;;;;;;1037559;28;3947;-55
2022/06/20 02:04:27;;;;;;;;;;;;;;;;;;1036265;28;3035;-53
2022/06/20 02:04:57;;;;;;;;;;;;;;;;;;1036087;28;3919;-54
2022/06/20 02:05:29;;;;;;;;;;;;;;;;;;1037865;28;2199;-53
2022/06/20 02:05:59;;;;;;;;;;;;;;;;;;1036634;28;3943;-50
2022/06/20 02:06:30;;;;;;;;;;;;;;;;;;1037023;28;2808;-55
2022/06/20 02:07:01;;;;;;;;;;;;;;;;;;1036594;28;3840;-54
2022/06/20 02:07:32;;;;;;;;;;;;;;;;;;1037880;28;1711;-55
2022/06/20 02:08:04;;;;;;;;;;;;;;;;;;1036729;28;3818;-54
2022/06/20 02:08:35;;;;;;;;;;;;;;;;;;1037631;28;2912;-54
2022/06/20 02:09:06;;;;;;;;;;;;;;;;;;1036609;28;3980;-53
2022/06/20 02:09:37;;;;;;;;;;;;;;;;;;1036719;28;2411;-55
2022/06/20 02:10:17;;;;;;;;;;;;;;;;;;1037261;28;4212;-52
2022/06/20 02:11:01;;;;;;;;;;;;;;;;;;1037925;28;1700;-52
2022/06/20 02:11:33;;;;;;;;;;;;;;;;;;1036018;28;3698;-52
2022/06/20 02:12:04;;;;;;;;;;;;;;;;;;1037595;28;5369;-55
2022/06/20 02:12:36;;;;;;;;;;;;;;;;;;1036109;28;2805;-55
2022/06/20 02:13:07;;;;;;;;;;;;;;;;;;1036405;28;3892;-53
2022/06/20 02:13:40;;;;;;;;;;;;;;;;;;1037382;28;2937;-55
2022/06/20 02:14:20;;;;;;;;;;;;;;;;;;1042400;28;3804;-54
2022/06/20 02:14:52;;;;;;;;;;;;;;;;;;1044654;28;3820;-54
2022/06/20 02:15:22;;;;;;;;;;;;;;;;;;1042806;28;3993;-52
2022/06/20 02:15:55;;;;;;;;;;;;;;;;;;1042456;28;3819;-53
2022/06/20 02:16:27;;;;;;;;;;;;;;;;;;1036699;28;3787;-51
2022/06/20 02:17:05;;;;;;;;;;;;;;;;;;1036882;28;3792;-53
2022/06/20 02:17:37;;;;;;;;;;;;;;;;;;1036431;28;2843;-52
2022/06/20 02:18:08;;;;;;;;;;;;;;;;;;1037078;28;3795;-50
2022/06/20 02:18:41;;;;;;;;;;;;;;;;;;1036098;28;2984;-54
2022/06/20 02:19:13;;;;;;;;;;;;;;;;;;1043998;28;3860;-54
2022/06/20 02:19:46;;;;;;;;;;;;;;;;;;1043859;28;2184;-53
2022/06/20 02:20:21;;;;;;;;;;;;;;;;;;1044245;28;3781;-54
2022/06/20 02:20:53;;;;;;;;;;;;;;;;;;1041974;28;3204;-53
2022/06/20 02:21:25;;;;;;;;;;;;;;;;;;1036520;28;3746;-54
2022/06/20 02:21:58;;;;;;;;;;;;;;;;;;1036138;28;3939;-52
2022/06/20 02:22:30;;;;;;;;;;;;;;;;;;1036499;28;2830;-54
2022/06/20 02:23:01;;;;;;;;;;;;;;;;;;1037185;28;3822;-53
2022/06/20 02:23:34;;;;;;;;;;;;;;;;;;1037023;28;3337;-52
2022/06/20 02:24:14;;;;;;;;;;;;;;;;;;1034384;28;3830;-54
2022/06/20 02:24:47;;;;;;;;;;;;;;;;;;1035678;28;2667;-53
2022/06/20 02:25:22;;;;;;;;;;;;;;;;;;1037423;28;3903;-53
2022/06/20 02:25:53;;;;;;;;;;;;;;;;;;1040214;28;4272;-52
2022/06/20 02:26:23;;;;;;;;;;;;;;;;;;1037655;28;1583;-51
2022/06/20 02:26:55;;;;;;;;;;;;;;;;;;1036105;28;3838;-52
2022/06/20 02:27:28;;;;;;;;;;;;;;;;;;1039018;28;3792;-52
2022/06/20 02:28:07;;;;;;;;;;;;;;;;;;1040223;28;3905;-50
2022/06/20 02:28:38;;;;;;;;;;;;;;;;;;1046135;28;1692;-53
2022/06/20 02:29:20;;;;;;;;;;;;;;;;;;1040478;28;3927;-50
2022/06/20 02:29:50;;;;;;;;;;;;;;;;;;1035716;28;4269;-52
2022/06/20 02:30:20;;;;;;;;;;;;;;;;;;1035384;28;4500;-51
2022/06/20 02:30:51;;;;;;;;;;;;;;;;;;1038655;28;1642;-53
2022/06/20 02:31:21;;;;;;;;;;;;;;;;;;1036319;28;3911;-56
2022/06/20 02:32:18;;;;;;;;;;;;;;;;;;1037659;28;3265;-52
2022/06/20 02:32:54;;;;;;;;;;;;;;;;;;1035134;28;3763;-55
2022/06/20 02:33:26;;;;;;;;;;;;;;;;;;1037196;28;3840;-52
2022/06/20 02:33:56;;;;;;;;;;;;;;;;;;1037772;28;3828;-52
2022/06/20 02:34:28;;;;;;;;;;;;;;;;;;1037089;28;2800;-53
2022/06/20 02:34:59;;;;;;;;;;;;;;;;;;1037824;28;3876;-54
2022/06/20 02:35:29;;;;;;;;;;;;;;;;;;1036537;28;2817;-54
2022/06/20 02:36:02;;;;;;;;;;;;;;;;;;1036823;28;4017;-55
2022/06/20 02:36:32;;;;;;;;;;;;;;;;;;1036701;28;2678;-50
2022/06/20 02:37:04;;;;;;;;;;;;;;;;;;1037156;28;3927;-52
2022/06/20 02:37:34;;;;;;;;;;;;;;;;;;1037063;28;3035;-50
2022/06/20 02:38:05;;;;;;;;;;;;;;;;;;1035540;28;3794;-53
2022/06/20 02:38:36;;;;;;;;;;;;;;;;;;1036362;28;2768;-53
2022/06/20 02:39:06;;;;;;;;;;;;;;;;;;1037305;28;3913;-51
2022/06/20 02:39:38;;;;;;;;;;;;;;;;;;1037143;28;1938;-54
2022/06/20 02:40:11;;;;;;;;;;;;;;;;;;1036799;28;4284;-50
2022/06/20 02:40:42;;;;;;;;;;;;;;;;;;1037176;28;1645;-53
2022/06/20 02:41:14;;;;;;;;;;;;;;;;;;1037820;28;3799;-53
2022/06/20 02:41:46;;;;;;;;;;;;;;;;;;1034979;28;2694;-51
2022/06/20 02:42:28;;;;;;;;;;;;;;;;;;1035206;28;3860;-55
2022/06/20 02:43:25;;;;;;;;;;;;;;;;;;1037441;28;4247;-54
2022/06/20 02:43:58;;;;;;;;;;;;;;;;;;1026971;28;4278;-54
2022/06/20 02:44:29;;;;;;;;;;;;;;;;;;1031827;28;2876;-53
2022/06/20 02:45:02;;;;;;;;;;;;;;;;;;1043413;28;3840;-52
2022/06/20 02:45:33;;;;;;;;;;;;;;;;;;1041623;28;3217;-53
2022/06/20 02:46:07;;;;;;;;;;;;;;;;;;1036153;28;4293;-54
2022/06/20 02:46:39;;;;;;;;;;;;;;;;;;1035625;28;3486;-54
2022/06/20 02:47:10;;;;;;;;;;;;;;;;;;1036182;28;3854;-54
2022/06/20 02:47:43;;;;;;;;;;;;;;;;;;1036521;28;3160;-55
2022/06/20 02:48:15;;;;;;;;;;;;;;;;;;1036896;28;3880;-52
2022/06/20 02:48:48;;;;;;;;;;;;;;;;;;1037289;28;1608;-53
2022/06/20 02:49:19;;;;;;;;;;;;;;;;;;1036954;28;3844;-51
2022/06/20 02:49:51;;;;;;;;;;;;;;;;;;1037888;28;2767;-55
2022/06/20 02:50:23;;;;;;;;;;;;;;;;;;1035130;28;3854;-54
2022/06/20 02:50:54;;;;;;;;;;;;;;;;;;1036883;28;3792;-54
2022/06/20 02:51:27;;;;;;;;;;;;;;;;;;1037427;28;1877;-53
2022/06/20 02:52:11;;;;;;;;;;;;;;;;;;1036941;28;4276;-50
2022/06/20 02:52:57;;;;;;;;;;;;;;;;;;1040426;28;2868;-51
2022/06/20 02:53:34;;;;;;;;;;;;;;;;;;1041428;28;3828;-53
2022/06/20 02:54:06;;;;;;;;;;;;;;;;;;1039220;28;3902;-55
2022/06/20 02:54:37;;;;;;;;;;;;;;;;;;1041013;28;2908;-54
2022/06/20 02:55:07;;;;;;;;;;;;;;;;;;1040701;28;3863;-53
2022/06/20 02:55:38;;;;;;;;;;;;;;;;;;1042103;28;1719;-55
2022/06/20 02:56:12;;;;;;;;;;;;;;;;;;1041635;28;4457;-53
2022/06/20 02:56:45;;;;;;;;;;;;;;;;;;1036673;28;2394;-54
2022/06/20 02:57:19;;;;;;;;;;;;;;;;;;1036139;28;4247;-54
2022/06/20 02:57:52;;;;;;;;;;;;;;;;;;1041786;28;1642;-52
2022/06/20 02:58:26;;;;;;;;;;;;;;;;;;1042381;28;4193;-52
2022/06/20 02:58:59;;;;;;;;;;;;;;;;;;1039201;28;3968;-52
2022/06/20 02:59:31;;;;;;;;;;;;;;;;;;1037629;28;2843;-55
2022/06/20 03:00:13;;;;;;;;;;;;;;;;;;1035846;28;4556;-54
2022/06/20 03:00:44;;;;;;;;;;;;;;;;;;1037017;28;3285;-52
2022/06/20 03:01:21;;;;;;;;;;;;;;;;;;1040473;28;3856;-53
2022/06/20 03:01:52;;;;;;;;;;;;;;;;;;1042033;28;1656;-50
2022/06/20 03:02:25;;;;;;;;;;;;;;;;;;1042488;28;5108;-54
2022/06/20 03:02:57;;;;;;;;;;;;;;;;;;1044367;28;3785;-54
2022/06/20 03:03:31;;;;;;;;;;;;;;;;;;1045965;28;1738;-54
2022/06/20 03:04:02;;;;;;;;;;;;;;;;;;1042302;28;4225;-55
2022/06/20 03:04:34;;;;;;;;;;;;;;;;;;1041416;28;3411;-54
2022/06/20 03:05:05;;;;;;;;;;;;;;;;;;1037142;28;3821;-52
2022/06/20 03:05:36;;;;;;;;;;;;;;;;;;1037292;28;2110;-53
2022/06/20 03:06:09;;;;;;;;;;;;;;;;;;1037029;28;3910;-51
2022/06/20 03:06:42;;;;;;;;;;;;;;;;;;1038566;28;1626;-55
2022/06/20 03:07:14;;;;;;;;;;;;;;;;;;1036169;28;3880;-52
2022/06/20 03:07:45;;;;;;;;;;;;;;;;;;1037248;28;3096;-54
2022/06/20 03:08:16;;;;;;;;;;;;;;;;;;1035709;28;3881;-52
2022/06/20 03:08:46;;;;;;;;;;;;;;;;;;1037786;28;1996;-54
2022/06/20 03:09:19;;;;;;;;;;;;;;;;;;1040024;28;4222;-53
2022/06/20 03:09:52;;;;;;;;;;;;;;;;;;1039536;28;3458;-53
2022/06/20 03:10:28;;;;;;;;;;;;;;;;;;1039251;28;3770;-53
2022/06/20 03:11:03;;;;;;;;;;;;;;;;;;1041729;28;3927;-54
2022/06/20 03:11:35;;;;;;;;;;;;;;;;;;1041799;28;2215;-52
2022/06/20 03:12:06;;;;;;;;;;;;;;;;;;1039785;28;4003;-55
2022/06/20 03:12:36;;;;;;;;;;;;;;;;;;1041102;28;3899;-52
2022/06/20 03:13:07;;;;;;;;;;;;;;;;;;1036877;28;3908;-54
2022/06/20 03:13:38;;;;;;;;;;;;;;;;;;1035929;28;2936;-54
2022/06/20 03:14:13;;;;;;;;;;;;;;;;;;1035832;28;4030;-51
2022/06/20 03:14:49;;;;;;;;;;;;;;;;;;1033206;28;3157;-53
2022/06/20 03:15:20;;;;;;;;;;;;;;;;;;1034635;28;3870;-53
2022/06/20 03:15:51;;;;;;;;;;;;;;;;;;1037897;28;1698;-53
2022/06/20 03:16:22;;;;;;;;;;;;;;;;;;1036301;28;3943;-53
2022/06/20 03:16:52;;;;;;;;;;;;;;;;;;1040623;28;3807;-54
2022/06/20 03:17:23;;;;;;;;;;;;;;;;;;1041397;28;2003;-53
2022/06/20 03:17:57;;;;;;;;;;;;;;;;;;1041673;28;3795;-53
2022/06/20 03:18:27;;;;;;;;;;;;;;;;;;1035369;28;3710;-53
2022/06/20 03:18:59;;;;;;;;;;;;;;;;;;1035836;28;3993;-50
2022/06/20 03:19:32;;;;;;;;;;;;;;;;;;1035731;28;3187;-55
2022/06/20 03:20:04;;;;;;;;;;;;;;;;;;1035482;28;4258;-54
2022/06/20 03:20:35;;;;;;;;;;;;;;;;;;1039300;28;2864;-52
2022/06/20 03:21:05;;;;;;;;;;;;;;;;;;1041502;28;3819;-53
2022/06/20 03:21:37;;;;;;;;;;;;;;;;;;1037099;28;1867;-55
2022/06/20 03:22:09;;;;;;;;;;;;;;;;;;1037220;28;3926;-55
2022/06/20 03:22:46;;;;;;;;;;;;;;;;;;1036417;28;2637;-54
2022/06/20 03:23:19;;;;;;;;;;;;;;;;;;1038497;28;3892;-53
2022/06/20 03:23:50;;;;;;;;;;;;;;;;;;1040651;28;3251;-53
2022/06/20 03:24:22;;;;;;;;;;;;;;;;;;1036192;28;4281;-50
2022/06/20 03:24:53;;;;;;;;;;;;;;;;;;1038456;28;3850;-50
2022/06/20 03:25:23;;;;;;;;;;;;;;;;;;1041437;28;2668;-55
2022/06/20 03:25:55;;;;;;;;;;;;;;;;;;1039613;28;4278;-54
2022/06/20 03:26:26;;;;;;;;;;;;;;;;;;1041402;28;3635;-53
2022/06/20 03:26:57;;;;;;;;;;;;;;;;;;1039005;28;4211;-54
2022/06/20 03:27:30;;;;;;;;;;;;;;;;;;1041238;28;1929;-53
2022/06/20 03:28:01;;;;;;;;;;;;;;;;;;1039646;28;3887;-54
2022/06/20 03:28:32;;;;;;;;;;;;;;;;;;1040282;28;3074;-51
2022/06/20 03:29:03;;;;;;;;;;;;;;;;;;1040806;28;3894;-50
2022/06/20 03:29:35;;;;;;;;;;;;;;;;;;1038973;28;3895;-55
2022/06/20 03:30:18;;;;;;;;;;;;;;;;;;1039033;28;3898;-52
2022/06/20 03:30:49;;;;;;;;;;;;;;;;;;1044150;28;2535;-53
2022/06/20 03:31:20;;;;;;;;;;;;;;;;;;1043536;28;4024;-54
2022/06/20 03:31:51;;;;;;;;;;;;;;;;;;1042904;28;3801;-53
2022/06/20 03:32:25;;;;;;;;;;;;;;;;;;1043494;28;3718;-54
2022/06/20 03:32:56;;;;;;;;;;;;;;;;;;1038829;28;4240;-54
2022/06/20 03:33:27;;;;;;;;;;;;;;;;;;1041223;28;2804;-53
2022/06/20 03:33:57;;;;;;;;;;;;;;;;;;1039410;28;3825;-53
2022/06/20 03:34:27;;;;;;;;;;;;;;;;;;1042292;28;1834;-52
2022/06/20 03:34:58;;;;;;;;;;;;;;;;;;1038981;28;3990;-54
2022/06/20 03:35:30;;;;;;;;;;;;;;;;;;1040178;28;4010;-53
2022/06/20 03:36:06;;;;;;;;;;;;;;;;;;1039413;28;3872;-55
2022/06/20 03:36:37;;;;;;;;;;;;;;;;;;1041393;28;1986;-53
2022/06/20 03:37:07;;;;;;;;;;;;;;;;;;1041716;28;3899;-54
2022/06/20 03:37:38;;;;;;;;;;;;;;;;;;1041106;28;1754;-53
2022/06/20 03:38:09;;;;;;;;;;;;;;;;;;1040342;28;4105;-55
2022/06/20 03:38:40;;;;;;;;;;;;;;;;;;1040952;28;1836;-53
2022/06/20 03:39:10;;;;;;;;;;;;;;;;;;1040863;28;3787;-55
2022/06/20 03:39:41;;;;;;;;;;;;;;;;;;1040843;28;2108;-55
2022/06/20 03:40:12;;;;;;;;;;;;;;;;;;1041171;28;3895;-53
2022/06/20 03:40:42;;;;;;;;;;;;;;;;;;1039239;28;3710;-52
2022/06/20 03:41:14;;;;;;;;;;;;;;;;;;1041477;28;4313;-52
2022/06/20 03:41:45;;;;;;;;;;;;;;;;;;1041150;28;2741;-53
2022/06/20 03:42:15;;;;;;;;;;;;;;;;;;1041682;28;3947;-53
2022/06/20 03:42:46;;;;;;;;;;;;;;;;;;1040615;28;2226;-54
2022/06/20 03:43:18;;;;;;;;;;;;;;;;;;1041682;28;3797;-54
2022/06/20 03:44:10;;;;;;;;;;;;;;;;;;1039420;28;3212;-53
2022/06/20 03:44:44;;;;;;;;;;;;;;;;;;1040410;28;3741;-50
2022/06/20 03:45:15;;;;;;;;;;;;;;;;;;1039745;28;3876;-54
2022/06/20 03:45:48;;;;;;;;;;;;;;;;;;1040466;28;2563;-55
2022/06/20 03:46:20;;;;;;;;;;;;;;;;;;1041642;28;3823;-53
2022/06/20 03:47:03;;;;;;;;;;;;;;;;;;1040944;28;2452;-54
2022/06/20 03:47:37;;;;;;;;;;;;;;;;;;1040235;28;3733;-55
2022/06/20 03:48:12;;;;;;;;;;;;;;;;;;1039524;28;4255;-53
2022/06/20 03:48:46;;;;;;;;;;;;;;;;;;1041770;28;1376;-54
2022/06/20 03:49:35;;;;;;;;;;;;;;;;;;1040662;28;3948;-54
2022/06/20 03:50:06;;;;;;;;;;;;;;;;;;1035943;28;4210;-53
2022/06/20 03:50:38;;;;;;;;;;;;;;;;;;1036841;28;2783;-54
2022/06/20 03:51:16;;;;;;;;;;;;;;;;;;1035630;28;3884;-54
2022/06/20 03:51:49;;;;;;;;;;;;;;;;;;1034024;28;3765;-54
2022/06/20 03:52:21;;;;;;;;;;;;;;;;;;1034990;28;4216;-53
2022/06/20 03:53:10;;;;;;;;;;;;;;;;;;1033734;28;4255;-55
2022/06/20 03:53:49;;;;;;;;;;;;;;;;;;1037460;28;1837;-54
2022/06/20 03:54:29;;;;;;;;;;;;;;;;;;1036347;28;3845;-55
2022/06/20 03:55:05;;;;;;;;;;;;;;;;;;1035709;28;3784;-54